createdAt,value
2023-04-14T00:00:43.570Z,624.98
2023-04-14T00:01:43.645Z,623.78
2023-04-14T00:02:43.726Z,623.82
2023-04-14T00:03:43.731Z,624.40
2023-04-14T00:04:43.616Z,624.38
2023-04-14T00:05:43.512Z,624.90
2023-04-14T00:06:43.526Z,624.34
2023-04-14T00:07:43.499Z,623.72
2023-04-14T00:08:43.481Z,624.40
2023-04-14T00:09:43.471Z,625.74
2023-04-14T00:10:43.474Z,626.08
2023-04-14T00:11:43.469Z,625.10
2023-04-14T00:12:43.456Z,624.86
2023-04-14T00:13:43.446Z,624.21
2023-04-14T00:14:43.439Z,624.52
2023-04-14T00:15:43.432Z,624.64
2023-04-14T00:16:43.460Z,624.94
2023-04-14T00:17:43.421Z,624.85
2023-04-14T00:18:43.388Z,625.24
2023-04-14T00:19:43.384Z,625.35
2023-04-14T00:20:43.353Z,625.37
2023-04-14T00:21:43.367Z,624.97
2023-04-14T00:22:43.359Z,624.48
2023-04-14T00:23:43.391Z,625.66
2023-04-14T00:24:43.320Z,626.84
2023-04-14T00:25:43.302Z,626.83
2023-04-14T00:26:43.291Z,628.06
2023-04-14T00:27:43.305Z,628.15
2023-04-14T00:28:43.258Z,628.20
2023-04-14T00:29:43.252Z,629.69
2023-04-14T00:30:43.318Z,630.30
2023-04-14T00:31:43.269Z,630.30
2023-04-14T00:32:43.299Z,631.12
2023-04-14T00:33:43.216Z,631.20
2023-04-14T00:34:43.218Z,631.27
2023-04-14T00:35:43.187Z,631.60
2023-04-14T00:36:43.186Z,631.93
2023-04-14T00:37:43.178Z,631.47
2023-04-14T00:38:43.147Z,631.52
2023-04-14T00:39:43.138Z,631.57
2023-04-14T00:40:43.146Z,631.99
2023-04-14T00:41:43.123Z,632.17
2023-04-14T00:42:50.638Z,632.23
2023-04-14T00:43:43.099Z,633.14
2023-04-14T00:44:43.083Z,633.09
2023-04-14T00:45:43.091Z,633.02
2023-04-14T00:46:43.122Z,632.64
2023-04-14T00:47:43.099Z,632.32
2023-04-14T00:48:43.045Z,631.30
2023-04-14T00:49:43.040Z,629.84
2023-04-14T00:50:43.042Z,629.60
2023-04-14T00:51:43.010Z,628.71
2023-04-14T00:52:43.011Z,628.25
2023-04-14T00:53:42.998Z,626.93
2023-04-14T00:54:42.974Z,626.49
2023-04-14T00:55:42.984Z,627.25
2023-04-14T00:56:42.955Z,627.31
2023-04-14T00:57:42.947Z,626.97
2023-04-14T00:58:42.945Z,626.60
2023-04-14T00:59:42.930Z,626.87
2023-04-14T01:00:42.907Z,626.69
2023-04-14T01:01:43.035Z,627.30
2023-04-14T01:02:43.052Z,626.76
2023-04-14T01:03:43.041Z,625.92
2023-04-14T01:04:53.639Z,625.71
2023-04-14T01:05:42.857Z,625.62
2023-04-14T01:06:42.885Z,625.01
2023-04-14T01:07:42.832Z,624.94
2023-04-14T01:08:42.832Z,624.19
2023-04-14T01:09:42.820Z,623.91
2023-04-14T01:10:42.797Z,624.38
2023-04-14T01:11:42.788Z,624.30
2023-04-14T01:12:42.776Z,624.80
2023-04-14T01:13:42.788Z,624.62
2023-04-14T01:14:42.765Z,624.69
2023-04-14T01:15:42.788Z,624.70
2023-04-14T01:16:43.415Z,625.02
2023-04-14T01:17:42.766Z,624.88
2023-04-14T01:18:42.711Z,625.10
2023-04-14T01:19:42.714Z,625.22
2023-04-14T01:20:42.686Z,625.82
2023-04-14T01:21:42.679Z,625.38
2023-04-14T01:22:42.684Z,625.61
2023-04-14T01:23:42.662Z,624.49
2023-04-14T01:24:42.664Z,624.94
2023-04-14T01:25:42.642Z,624.63
2023-04-14T01:26:42.621Z,625.28
2023-04-14T01:27:42.633Z,626.86
2023-04-14T01:28:42.601Z,627.04
2023-04-14T01:29:42.616Z,628.15
2023-04-14T01:30:42.577Z,628.36
2023-04-14T01:31:42.645Z,626.95
2023-04-14T01:32:42.603Z,626.29
2023-04-14T01:33:42.548Z,626.96
2023-04-14T01:34:42.560Z,627.06
2023-04-14T01:35:42.529Z,627.13
2023-04-14T01:36:42.524Z,627.75
2023-04-14T01:37:42.505Z,629.14
2023-04-14T01:38:42.526Z,629.74
2023-04-14T01:39:42.504Z,628.85
2023-04-14T01:40:42.483Z,628.77
2023-04-14T01:41:42.460Z,629.23
2023-04-14T01:42:42.445Z,629.04
2023-04-14T01:43:42.440Z,629.79
2023-04-14T01:44:42.435Z,629.16
2023-04-14T01:45:42.446Z,629.25
2023-04-14T01:46:42.427Z,629.65
2023-04-14T01:47:42.425Z,629.55
2023-04-14T01:48:42.381Z,628.74
2023-04-14T01:49:42.411Z,628.42
2023-04-14T01:50:42.373Z,626.93
2023-04-14T01:51:42.357Z,626.81
2023-04-14T01:52:42.343Z,627.15
2023-04-14T01:53:42.333Z,627.12
2023-04-14T01:54:42.365Z,626.86
2023-04-14T01:55:42.311Z,627.54
2023-04-14T01:56:42.297Z,626.74
2023-04-14T01:57:42.310Z,626.72
2023-04-14T01:58:42.290Z,626.09
2023-04-14T01:59:42.290Z,626.45
2023-04-14T02:00:42.320Z,627.45
2023-04-14T02:01:42.275Z,628.33
2023-04-14T02:02:42.299Z,627.72
2023-04-14T02:03:42.297Z,628.02
2023-04-14T02:04:42.225Z,628.90
2023-04-14T02:05:42.218Z,628.41
2023-04-14T02:06:42.187Z,626.47
2023-04-14T02:07:42.192Z,624.45
2023-04-14T02:08:42.171Z,624.07
2023-04-14T02:09:42.155Z,624.69
2023-04-14T02:10:42.174Z,625.74
2023-04-14T02:11:42.136Z,626.91
2023-04-14T02:12:42.120Z,626.38
2023-04-14T02:13:42.121Z,627.76
2023-04-14T02:14:42.123Z,627.38
2023-04-14T02:15:42.090Z,626.91
2023-04-14T02:16:42.117Z,627.01
2023-04-14T02:17:42.110Z,626.98
2023-04-14T02:18:42.091Z,626.50
2023-04-14T02:19:42.056Z,625.98
2023-04-14T02:20:42.032Z,625.98
2023-04-14T02:21:42.037Z,626.09
2023-04-14T02:22:42.011Z,626.09
2023-04-14T02:23:42.014Z,626.34
2023-04-14T02:24:42.001Z,626.09
2023-04-14T02:25:41.995Z,625.98
2023-04-14T02:26:41.990Z,625.45
2023-04-14T02:27:41.960Z,626.89
2023-04-14T02:28:41.961Z,627.80
2023-04-14T02:29:41.950Z,626.71
2023-04-14T02:30:41.950Z,627.76
2023-04-14T02:31:41.924Z,627.86
2023-04-14T02:32:41.978Z,628.63
2023-04-14T02:33:41.897Z,628.69
2023-04-14T02:34:41.909Z,631.05
2023-04-14T02:35:41.899Z,630.34
2023-04-14T02:36:41.868Z,628.83
2023-04-14T02:37:41.877Z,627.81
2023-04-14T02:38:41.863Z,627.78
2023-04-14T02:39:41.874Z,627.86
2023-04-14T02:40:41.817Z,626.98
2023-04-14T02:41:41.803Z,626.00
2023-04-14T02:42:41.890Z,624.80
2023-04-14T02:43:49.287Z,623.57
2023-04-14T02:44:41.830Z,626.82
2023-04-14T02:45:41.806Z,628.46
2023-04-14T02:46:41.863Z,628.63
2023-04-14T02:47:41.758Z,631.78
2023-04-14T02:48:41.735Z,632.18
2023-04-14T02:49:41.729Z,630.92
2023-04-14T02:50:41.706Z,631.75
2023-04-14T02:51:41.710Z,630.25
2023-04-14T02:52:41.709Z,629.06
2023-04-14T02:53:41.692Z,629.31
2023-04-14T02:54:41.658Z,628.00
2023-04-14T02:55:41.665Z,628.45
2023-04-14T02:56:41.641Z,627.96
2023-04-14T02:57:41.633Z,627.31
2023-04-14T02:58:41.645Z,626.57
2023-04-14T02:59:41.643Z,625.98
2023-04-14T03:00:41.617Z,625.67
2023-04-14T03:01:41.682Z,626.31
2023-04-14T03:02:41.636Z,626.59
2023-04-14T03:03:41.567Z,626.17
2023-04-14T03:04:41.644Z,625.86
2023-04-14T03:05:41.574Z,625.50
2023-04-14T03:06:41.550Z,625.18
2023-04-14T03:07:41.532Z,625.14
2023-04-14T03:08:41.510Z,625.50
2023-04-14T03:09:41.501Z,625.65
2023-04-14T03:10:41.512Z,625.66
2023-04-14T03:11:41.489Z,626.94
2023-04-14T03:12:41.468Z,627.50
2023-04-14T03:13:41.467Z,627.03
2023-04-14T03:14:41.468Z,628.31
2023-04-14T03:15:41.506Z,628.18
2023-04-14T03:16:41.455Z,628.49
2023-04-14T03:17:41.513Z,628.25
2023-04-14T03:18:41.423Z,627.74
2023-04-14T03:19:41.425Z,627.30
2023-04-14T03:20:41.386Z,627.18
2023-04-14T03:21:41.376Z,627.06
2023-04-14T03:22:41.357Z,627.92
2023-04-14T03:23:41.345Z,628.05
2023-04-14T03:24:41.345Z,628.03
2023-04-14T03:25:41.323Z,629.04
2023-04-14T03:26:41.317Z,627.83
2023-04-14T03:27:41.299Z,627.36
2023-04-14T03:28:41.301Z,627.50
2023-04-14T03:29:41.296Z,630.64
2023-04-14T03:30:41.289Z,629.79
2023-04-14T03:31:41.290Z,629.26
2023-04-14T03:32:41.307Z,630.31
2023-04-14T03:33:41.245Z,629.78
2023-04-14T03:34:41.243Z,629.55
2023-04-14T03:35:41.215Z,627.84
2023-04-14T03:36:41.228Z,626.72
2023-04-14T03:37:41.195Z,625.55
2023-04-14T03:38:41.196Z,624.18
2023-04-14T03:39:41.188Z,624.38
2023-04-14T03:40:41.174Z,624.80
2023-04-14T03:41:41.149Z,627.81
2023-04-14T03:42:41.141Z,629.85
2023-04-14T03:43:41.135Z,632.87
2023-04-14T03:44:41.117Z,631.35
2023-04-14T03:45:41.114Z,631.35
2023-04-14T03:46:41.162Z,629.42
2023-04-14T03:47:41.122Z,630.08
2023-04-14T03:48:41.083Z,631.00
2023-04-14T03:49:41.057Z,631.35
2023-04-14T03:50:41.066Z,630.07
2023-04-14T03:51:41.125Z,627.90
2023-04-14T03:52:41.055Z,628.45
2023-04-14T03:53:41.028Z,626.43
2023-04-14T03:54:41.011Z,626.12
2023-04-14T03:55:40.996Z,625.42
2023-04-14T03:56:40.989Z,626.91
2023-04-14T03:57:40.984Z,625.90
2023-04-14T03:58:40.968Z,626.77
2023-04-14T03:59:40.952Z,627.63
2023-04-14T04:00:40.943Z,628.51
2023-04-14T04:01:40.942Z,624.92
2023-04-14T04:02:41.018Z,624.43
2023-04-14T04:03:41.083Z,625.21
2023-04-14T04:04:41.023Z,625.32
2023-04-14T04:05:40.885Z,625.60
2023-04-14T04:06:40.897Z,626.64
2023-04-14T04:07:40.884Z,628.65
2023-04-14T04:08:40.859Z,630.14
2023-04-14T04:09:40.842Z,629.70
2023-04-14T04:10:40.849Z,629.99
2023-04-14T04:11:40.846Z,629.58
2023-04-14T04:12:40.831Z,630.07
2023-04-14T04:13:40.828Z,631.26
2023-04-14T04:14:40.792Z,632.05
2023-04-14T04:15:40.777Z,632.37
2023-04-14T04:16:40.826Z,632.91
2023-04-14T04:17:40.833Z,633.07
2023-04-14T04:18:40.768Z,632.77
2023-04-14T04:19:40.746Z,631.52
2023-04-14T04:20:40.765Z,630.06
2023-04-14T04:21:40.720Z,629.64
2023-04-14T04:22:40.710Z,630.05
2023-04-14T04:23:40.692Z,630.29
2023-04-14T04:24:40.697Z,629.47
2023-04-14T04:25:40.680Z,629.14
2023-04-14T04:26:40.665Z,628.50
2023-04-14T04:27:40.648Z,628.89
2023-04-14T04:28:40.671Z,630.01
2023-04-14T04:29:40.638Z,630.82
2023-04-14T04:30:40.693Z,631.72
2023-04-14T04:31:40.655Z,632.70
2023-04-14T04:32:40.621Z,633.07
2023-04-14T04:33:40.580Z,633.21
2023-04-14T04:34:40.610Z,633.28
2023-04-14T04:35:40.579Z,633.93
2023-04-14T04:36:40.553Z,633.71
2023-04-14T04:37:40.537Z,632.75
2023-04-14T04:38:40.529Z,635.08
2023-04-14T04:39:40.513Z,635.49
2023-04-14T04:40:40.506Z,636.36
2023-04-14T04:41:40.505Z,633.84
2023-04-14T04:42:40.485Z,632.81
2023-04-14T04:43:40.473Z,632.24
2023-04-14T04:44:48.031Z,625.00
2023-04-14T04:45:40.514Z,625.69
2023-04-14T04:46:40.530Z,628.56
2023-04-14T04:47:40.460Z,631.50
2023-04-14T04:48:40.434Z,634.08
2023-04-14T04:49:40.416Z,631.88
2023-04-14T04:50:40.422Z,631.06
2023-04-14T04:51:40.388Z,632.46
2023-04-14T04:52:40.373Z,631.81
2023-04-14T04:53:40.368Z,630.25
2023-04-14T04:54:40.373Z,628.01
2023-04-14T04:55:40.349Z,625.84
2023-04-14T04:56:40.335Z,625.01
2023-04-14T04:57:40.317Z,625.95
2023-04-14T04:58:40.320Z,627.33
2023-04-14T04:59:40.305Z,629.33
2023-04-14T05:00:40.290Z,630.09
2023-04-14T05:01:40.327Z,629.36
2023-04-14T05:02:40.342Z,628.10
2023-04-14T05:03:40.254Z,628.72
2023-04-14T05:04:40.286Z,628.35
2023-04-14T05:05:40.234Z,628.70
2023-04-14T05:06:40.249Z,628.48
2023-04-14T05:07:40.231Z,629.19
2023-04-14T05:08:40.222Z,629.07
2023-04-14T05:09:40.206Z,628.51
2023-04-14T05:10:40.204Z,628.99
2023-04-14T05:11:40.171Z,629.73
2023-04-14T05:12:40.165Z,630.51
2023-04-14T05:13:40.149Z,630.15
2023-04-14T05:14:40.149Z,629.82
2023-04-14T05:15:40.169Z,634.11
2023-04-14T05:16:40.118Z,634.62
2023-04-14T05:17:40.205Z,632.14
2023-04-14T05:18:40.106Z,632.41
2023-04-14T05:19:40.094Z,633.86
2023-04-14T05:20:40.517Z,632.25
2023-04-14T05:21:40.073Z,633.98
2023-04-14T05:22:40.087Z,635.25
2023-04-14T05:23:40.044Z,634.51
2023-04-14T05:24:40.060Z,632.22
2023-04-14T05:25:40.036Z,632.55
2023-04-14T05:27:40.000Z,631.35
2023-04-14T05:28:39.984Z,630.90
2023-04-14T05:29:39.973Z,629.19
2023-04-14T05:30:39.982Z,625.42
2023-04-14T05:31:40.059Z,625.56
2023-04-14T05:32:39.972Z,625.99
2023-04-14T05:33:39.936Z,627.54
2023-04-14T05:34:39.944Z,628.08
2023-04-14T05:35:39.908Z,630.14
2023-04-14T05:36:39.910Z,632.00
2023-04-14T05:37:39.886Z,633.89
2023-04-14T05:38:39.934Z,633.27
2023-04-14T05:39:39.865Z,631.19
2023-04-14T05:40:39.856Z,630.81
2023-04-14T05:41:39.858Z,630.15
2023-04-14T05:42:39.846Z,630.13
2023-04-14T05:43:39.844Z,627.75
2023-04-14T05:44:39.815Z,627.56
2023-04-14T05:45:39.815Z,629.10
2023-04-14T05:46:39.865Z,629.92
2023-04-14T05:47:39.819Z,630.47
2023-04-14T05:48:39.798Z,630.83
2023-04-14T05:49:39.769Z,631.90
2023-04-14T05:50:39.746Z,632.10
2023-04-14T05:51:39.744Z,632.60
2023-04-14T05:52:39.742Z,632.84
2023-04-14T05:53:39.711Z,633.58
2023-04-14T05:54:41.327Z,632.15
2023-04-14T05:55:39.693Z,629.60
2023-04-14T05:56:39.682Z,628.71
2023-04-14T05:57:39.665Z,628.36
2023-04-14T05:58:39.687Z,629.41
2023-04-14T05:59:39.643Z,633.71
2023-04-14T06:00:39.635Z,633.04
2023-04-14T06:01:39.694Z,632.84
2023-04-14T06:02:39.847Z,633.04
2023-04-14T06:03:40.757Z,631.34
2023-04-14T06:04:39.670Z,632.06
2023-04-14T06:05:39.575Z,632.27
2023-04-14T06:06:39.570Z,633.01
2023-04-14T06:07:39.577Z,632.36
2023-04-14T06:08:39.552Z,631.58
2023-04-14T06:09:39.537Z,631.69
2023-04-14T06:10:39.559Z,631.26
2023-04-14T06:11:39.517Z,630.29
2023-04-14T06:12:39.530Z,626.12
2023-04-14T06:13:39.494Z,625.99
2023-04-14T06:14:39.491Z,624.01
2023-04-14T06:15:39.478Z,624.99
2023-04-14T06:16:39.530Z,625.56
2023-04-14T06:17:39.470Z,628.79
2023-04-14T06:18:39.461Z,630.51
2023-04-14T06:19:39.443Z,635.45
2023-04-14T06:20:39.435Z,633.15
2023-04-14T06:21:39.420Z,632.77
2023-04-14T06:22:39.407Z,631.35
2023-04-14T06:23:39.380Z,631.96
2023-04-14T06:24:39.394Z,634.85
2023-04-14T06:25:39.384Z,634.16
2023-04-14T06:26:39.380Z,635.87
2023-04-14T06:27:39.338Z,636.69
2023-04-14T06:28:39.722Z,640.30
2023-04-14T06:29:39.318Z,639.55
2023-04-14T06:30:39.323Z,639.96
2023-04-14T06:31:39.328Z,640.22
2023-04-14T06:32:39.339Z,641.12
2023-04-14T06:33:39.271Z,641.15
2023-04-14T06:34:39.261Z,643.08
2023-04-14T06:35:39.248Z,643.51
2023-04-14T06:36:39.265Z,643.98
2023-04-14T06:37:39.226Z,641.96
2023-04-14T06:38:39.217Z,642.60
2023-04-14T06:39:39.210Z,640.33
2023-04-14T06:40:39.211Z,640.68
2023-04-14T06:41:39.183Z,640.68
2023-04-14T06:42:39.231Z,642.82
2023-04-14T06:43:39.162Z,641.69
2023-04-14T06:44:39.154Z,641.41
2023-04-14T06:45:46.716Z,640.91
2023-04-14T06:46:39.145Z,645.93
2023-04-14T06:47:39.156Z,646.33
2023-04-14T06:48:39.105Z,643.77
2023-04-14T06:49:39.111Z,642.01
2023-04-14T06:50:39.099Z,640.42
2023-04-14T06:51:39.071Z,640.32
2023-04-14T06:52:39.069Z,642.76
2023-04-14T06:53:39.048Z,643.72
2023-04-14T06:54:39.046Z,643.45
2023-04-14T06:55:39.040Z,642.93
2023-04-14T06:56:39.023Z,645.51
2023-04-14T06:57:39.007Z,646.13
2023-04-14T06:58:39.148Z,645.09
2023-04-14T06:59:38.988Z,643.83
2023-04-14T07:00:38.989Z,645.20
2023-04-14T07:01:39.032Z,646.19
2023-04-14T07:02:39.194Z,645.78
2023-04-14T07:03:38.966Z,645.57
2023-04-14T07:04:38.994Z,646.41
2023-04-14T07:05:38.926Z,648.54
2023-04-14T07:06:38.919Z,649.02
2023-04-14T07:07:38.912Z,648.65
2023-04-14T07:08:38.886Z,648.82
2023-04-14T07:09:38.897Z,650.55
2023-04-14T07:10:38.862Z,652.52
2023-04-14T07:11:38.860Z,655.16
2023-04-14T07:12:38.858Z,658.98
2023-04-14T07:13:38.833Z,664.35
2023-04-14T07:14:38.836Z,666.47
2023-04-14T07:15:38.862Z,668.90
2023-04-14T07:16:38.800Z,671.86
2023-04-14T07:17:38.836Z,674.84
2023-04-14T07:18:38.772Z,675.25
2023-04-14T07:19:38.769Z,678.49
2023-04-14T07:20:38.748Z,677.35
2023-04-14T07:21:38.735Z,673.70
2023-04-14T07:22:38.725Z,667.67
2023-04-14T07:23:38.724Z,667.09
2023-04-14T07:24:38.711Z,667.86
2023-04-14T07:25:38.713Z,668.93
2023-04-14T07:26:38.682Z,669.52
2023-04-14T07:27:38.687Z,672.49
2023-04-14T07:28:38.681Z,672.24
2023-04-14T07:29:38.654Z,674.29
2023-04-14T07:30:38.670Z,672.42
2023-04-14T07:31:38.638Z,671.58
2023-04-14T07:32:38.664Z,672.44
2023-04-14T07:33:38.637Z,674.92
2023-04-14T07:34:38.598Z,678.33
2023-04-14T07:35:41.894Z,682.05
2023-04-14T07:36:38.579Z,682.42
2023-04-14T07:37:38.584Z,687.60
2023-04-14T07:38:38.580Z,687.03
2023-04-14T07:39:38.577Z,685.74
2023-04-14T07:40:40.120Z,684.46
2023-04-14T07:41:38.555Z,687.43
2023-04-14T07:42:38.534Z,687.22
2023-04-14T07:43:38.561Z,691.82
2023-04-14T07:44:38.480Z,692.32
2023-04-14T07:45:38.477Z,695.74
2023-04-14T07:46:38.618Z,692.27
2023-04-14T07:47:38.538Z,691.54
2023-04-14T07:48:38.469Z,690.33
2023-04-14T07:49:38.430Z,694.25
2023-04-14T07:50:38.416Z,693.79
2023-04-14T07:51:38.412Z,696.53
2023-04-14T07:52:38.390Z,695.59
2023-04-14T07:53:38.408Z,700.37
2023-04-14T07:54:38.370Z,701.26
2023-04-14T07:55:38.364Z,698.51
2023-04-14T07:56:38.353Z,701.09
2023-04-14T07:57:38.339Z,699.85
2023-04-14T07:58:38.341Z,698.82
2023-04-14T07:59:38.329Z,701.84
2023-04-14T08:00:38.309Z,704.37
2023-04-14T08:01:38.340Z,704.20
2023-04-14T08:02:38.429Z,704.46
2023-04-14T08:03:38.555Z,703.56
2023-04-14T08:04:38.259Z,702.03
2023-04-14T08:05:38.354Z,702.43
2023-04-14T08:06:38.235Z,701.88
2023-04-14T08:07:38.238Z,705.59
2023-04-14T08:08:38.239Z,704.69
2023-04-14T08:09:38.210Z,702.83
2023-04-14T08:10:38.197Z,713.76
2023-04-14T08:11:38.188Z,712.96
2023-04-14T08:12:38.175Z,709.86
2023-04-14T08:13:38.167Z,716.11
2023-04-14T08:14:38.165Z,713.89
2023-04-14T08:15:38.152Z,708.42
2023-04-14T08:16:38.208Z,695.32
2023-04-14T08:17:38.179Z,690.98
2023-04-14T08:18:38.119Z,684.35
2023-04-14T08:19:38.120Z,688.53
2023-04-14T08:20:38.098Z,691.68
2023-04-14T08:21:38.079Z,697.21
2023-04-14T08:22:38.061Z,700.20
2023-04-14T08:23:38.067Z,699.99
2023-04-14T08:24:38.077Z,701.90
2023-04-14T08:25:38.036Z,700.60
2023-04-14T08:26:38.023Z,701.07
2023-04-14T08:27:38.002Z,697.93
2023-04-14T08:28:38.012Z,700.40
2023-04-14T08:29:37.995Z,701.15
2023-04-14T08:30:37.969Z,704.96
2023-04-14T08:31:38.031Z,707.62
2023-04-14T08:32:37.971Z,707.83
2023-04-14T08:33:37.933Z,708.62
2023-04-14T08:34:37.956Z,708.11
2023-04-14T08:35:42.293Z,707.33
2023-04-14T08:36:37.898Z,708.22
2023-04-14T08:37:37.895Z,711.42
2023-04-14T08:38:37.883Z,718.01
2023-04-14T08:39:37.893Z,727.42
2023-04-14T08:40:37.868Z,721.10
2023-04-14T08:41:37.861Z,712.41
2023-04-14T08:42:37.844Z,709.84
2023-04-14T08:43:37.824Z,707.44
2023-04-14T08:44:37.819Z,711.76
2023-04-14T08:45:37.884Z,708.03
2023-04-14T08:46:45.299Z,702.99
2023-04-14T08:47:37.829Z,705.98
2023-04-14T08:48:37.777Z,709.09
2023-04-14T08:49:37.755Z,713.41
2023-04-14T08:50:37.770Z,718.25
2023-04-14T08:51:37.745Z,713.79
2023-04-14T08:52:37.730Z,713.76
2023-04-14T08:53:37.713Z,711.63
2023-04-14T08:54:37.710Z,712.57
2023-04-14T08:55:37.750Z,710.99
2023-04-14T08:56:37.677Z,713.66
2023-04-14T08:57:37.679Z,717.14
2023-04-14T08:58:37.670Z,713.69
2023-04-14T08:59:37.662Z,712.63
2023-04-14T09:00:37.657Z,713.02
2023-04-14T09:01:37.679Z,722.47
2023-04-14T09:02:37.713Z,716.14
2023-04-14T09:03:37.805Z,712.82
2023-04-14T09:04:37.829Z,711.68
2023-04-14T09:05:37.576Z,711.33
2023-04-14T09:06:37.606Z,711.69
2023-04-14T09:07:37.590Z,719.38
2023-04-14T09:08:37.549Z,722.10
2023-04-14T09:09:37.549Z,717.07
2023-04-14T09:10:37.539Z,714.69
2023-04-14T09:11:37.536Z,714.29
2023-04-14T09:12:38.606Z,710.56
2023-04-14T09:13:37.501Z,713.48
2023-04-14T09:14:37.497Z,717.13
2023-04-14T09:15:37.472Z,713.78
2023-04-14T09:16:37.610Z,709.31
2023-04-14T09:17:37.505Z,708.71
2023-04-14T09:18:37.431Z,716.67
2023-04-14T09:19:37.423Z,719.54
2023-04-14T09:20:40.722Z,717.56
2023-04-14T09:21:52.160Z,713.88
2023-04-14T09:22:37.453Z,711.73
2023-04-14T09:23:37.384Z,707.60
2023-04-14T09:24:37.476Z,706.00
2023-04-14T09:25:37.375Z,702.12
2023-04-14T09:26:37.353Z,706.12
2023-04-14T09:27:37.373Z,707.39
2023-04-14T09:28:37.373Z,712.64
2023-04-14T09:29:37.348Z,708.22
2023-04-14T09:30:37.340Z,705.10
2023-04-14T09:31:37.331Z,707.06
2023-04-14T09:32:37.393Z,710.77
2023-04-14T09:33:37.298Z,710.20
2023-04-14T09:34:37.271Z,707.98
2023-04-14T09:35:37.248Z,705.06
2023-04-14T09:36:37.236Z,706.32
2023-04-14T09:37:37.240Z,711.87
2023-04-14T09:38:37.238Z,710.99
2023-04-14T09:39:37.223Z,709.93
2023-04-14T09:40:37.186Z,706.80
2023-04-14T09:41:37.178Z,714.94
2023-04-14T09:42:37.170Z,713.74
2023-04-14T09:43:37.186Z,711.70
2023-04-14T09:44:37.159Z,707.86
2023-04-14T09:45:37.135Z,707.37
2023-04-14T09:46:37.308Z,706.63
2023-04-14T09:47:37.155Z,710.84
2023-04-14T09:48:37.126Z,709.05
2023-04-14T09:49:37.089Z,710.89
2023-04-14T09:50:37.076Z,710.87
2023-04-14T09:51:37.076Z,711.06
2023-04-14T09:52:37.059Z,713.64
2023-04-14T09:53:37.054Z,710.85
2023-04-14T09:54:37.049Z,706.82
2023-04-14T09:55:37.023Z,705.78
2023-04-14T09:56:37.025Z,704.87
2023-04-14T09:57:36.999Z,712.30
2023-04-14T09:58:36.993Z,718.76
2023-04-14T09:59:36.985Z,713.59
2023-04-14T10:00:36.964Z,707.98
2023-04-14T10:01:36.994Z,710.53
2023-04-14T10:02:37.008Z,710.81
2023-04-14T10:03:37.056Z,715.04
2023-04-14T10:04:36.972Z,718.23
2023-04-14T10:05:36.912Z,715.19
2023-04-14T10:06:36.898Z,712.03
2023-04-14T10:07:36.885Z,709.35
2023-04-14T10:08:36.877Z,709.38
2023-04-14T10:09:36.883Z,705.95
2023-04-14T10:10:36.875Z,705.22
2023-04-14T10:11:36.864Z,703.41
2023-04-14T10:12:36.829Z,710.34
2023-04-14T10:13:36.842Z,711.83
2023-04-14T10:14:36.831Z,715.24
2023-04-14T10:15:36.846Z,725.70
2023-04-14T10:16:36.964Z,725.35
2023-04-14T10:17:36.832Z,715.49
2023-04-14T10:18:36.772Z,709.05
2023-04-14T10:19:36.754Z,707.67
2023-04-14T10:20:36.738Z,703.24
2023-04-14T10:21:36.734Z,696.63
2023-04-14T10:22:37.521Z,693.18
2023-04-14T10:23:36.732Z,698.70
2023-04-14T10:24:36.732Z,719.16
2023-04-14T10:25:36.696Z,723.59
2023-04-14T10:26:36.696Z,721.24
2023-04-14T10:27:36.688Z,725.00
2023-04-14T10:28:36.677Z,727.83
2023-04-14T10:29:36.645Z,727.18
2023-04-14T10:30:36.630Z,714.49
2023-04-14T10:31:36.642Z,723.21
2023-04-14T10:32:36.664Z,729.89
2023-04-14T10:33:36.614Z,722.61
2023-04-14T10:34:36.584Z,728.82
2023-04-14T10:35:36.579Z,716.83
2023-04-14T10:36:36.587Z,714.94
2023-04-14T10:37:36.560Z,712.90
2023-04-14T10:38:36.554Z,725.71
2023-04-14T10:39:36.543Z,728.43
2023-04-14T10:40:36.515Z,715.17
2023-04-14T10:41:36.509Z,712.85
2023-04-14T10:42:36.514Z,709.92
2023-04-14T10:43:36.498Z,705.25
2023-04-14T10:44:36.479Z,703.20
2023-04-14T10:45:36.467Z,702.27
2023-04-14T10:46:36.556Z,710.49
2023-04-14T10:47:44.000Z,696.94
2023-04-14T10:48:36.448Z,708.13
2023-04-14T10:49:36.435Z,715.44
2023-04-14T10:50:36.401Z,715.55
2023-04-14T10:51:36.397Z,734.57
2023-04-14T10:52:36.382Z,728.94
2023-04-14T10:53:37.100Z,730.15
2023-04-14T10:54:36.357Z,733.79
2023-04-14T10:55:40.135Z,734.48
2023-04-14T10:56:36.344Z,727.60
2023-04-14T10:57:38.597Z,728.35
2023-04-14T10:58:36.374Z,724.36
2023-04-14T10:59:36.309Z,720.32
2023-04-14T11:00:36.340Z,717.62
2023-04-14T11:01:36.370Z,711.33
2023-04-14T11:02:36.338Z,707.89
2023-04-14T11:03:36.408Z,715.22
2023-04-14T11:04:36.373Z,716.37
2023-04-14T11:05:36.258Z,712.07
2023-04-14T11:06:36.223Z,717.86
2023-04-14T11:07:36.230Z,729.99
2023-04-14T11:08:36.214Z,725.24
2023-04-14T11:09:36.195Z,721.37
2023-04-14T11:10:36.209Z,723.64
2023-04-14T11:11:36.172Z,721.65
2023-04-14T11:12:36.159Z,713.93
2023-04-14T11:13:36.154Z,710.06
2023-04-14T11:14:36.167Z,711.77
2023-04-14T11:15:36.136Z,719.75
2023-04-14T11:16:38.610Z,716.15
2023-04-14T11:17:36.227Z,708.66
2023-04-14T11:18:36.106Z,713.92
2023-04-14T11:19:36.086Z,716.02
2023-04-14T11:20:36.080Z,723.29
2023-04-14T11:21:36.072Z,728.47
2023-04-14T11:22:36.045Z,718.36
2023-04-14T11:23:36.042Z,712.95
2023-04-14T11:24:36.023Z,718.57
2023-04-14T11:25:36.014Z,718.11
2023-04-14T11:26:36.015Z,716.75
2023-04-14T11:27:36.014Z,713.88
2023-04-14T11:28:35.984Z,710.92
2023-04-14T11:29:35.982Z,709.01
2023-04-14T11:30:36.020Z,711.09
2023-04-14T11:31:35.973Z,703.38
2023-04-14T11:32:36.000Z,699.65
2023-04-14T11:33:35.951Z,698.96
2023-04-14T11:34:35.925Z,692.95
2023-04-14T11:35:35.907Z,694.82
2023-04-14T11:36:35.901Z,694.07
2023-04-14T11:37:35.888Z,691.66
2023-04-14T11:38:35.896Z,695.02
2023-04-14T11:39:35.874Z,702.95
2023-04-14T11:40:35.856Z,703.65
2023-04-14T11:41:35.842Z,701.23
2023-04-14T11:42:35.825Z,702.31
2023-04-14T11:43:35.831Z,708.52
2023-04-14T11:44:35.809Z,707.06
2023-04-14T11:45:35.793Z,703.38
2023-04-14T11:46:35.890Z,700.02
2023-04-14T11:47:35.813Z,702.04
2023-04-14T11:48:35.760Z,701.52
2023-04-14T11:49:35.748Z,695.28
2023-04-14T11:50:35.751Z,704.43
2023-04-14T11:51:35.724Z,718.50
2023-04-14T11:52:35.732Z,716.59
2023-04-14T11:53:35.703Z,716.84
2023-04-14T11:54:35.741Z,708.22
2023-04-14T11:55:35.698Z,706.95
2023-04-14T11:56:35.682Z,707.13
2023-04-14T11:57:35.663Z,707.01
2023-04-14T11:58:35.671Z,702.12
2023-04-14T11:59:35.638Z,701.66
2023-04-14T12:00:35.645Z,696.65
2023-04-14T12:01:35.618Z,694.37
2023-04-14T12:02:35.720Z,701.00
2023-04-14T12:03:35.901Z,712.93
2023-04-14T12:04:35.856Z,715.02
2023-04-14T12:05:35.706Z,716.19
2023-04-14T12:06:35.570Z,712.94
2023-04-14T12:07:35.556Z,707.33
2023-04-14T12:08:35.552Z,702.06
2023-04-14T12:09:35.541Z,701.45
2023-04-14T12:10:35.518Z,708.73
2023-04-14T12:11:35.515Z,705.53
2023-04-14T12:12:35.510Z,710.87
2023-04-14T12:13:35.482Z,705.45
2023-04-14T12:14:35.488Z,699.06
2023-04-14T12:15:35.579Z,697.03
2023-04-14T12:16:35.552Z,694.72
2023-04-14T12:17:35.469Z,688.81
2023-04-14T12:18:35.460Z,686.74
2023-04-14T12:19:35.428Z,689.77
2023-04-14T12:20:35.416Z,686.05
2023-04-14T12:21:35.393Z,687.63
2023-04-14T12:22:36.132Z,690.28
2023-04-14T12:23:35.374Z,693.10
2023-04-14T12:24:35.381Z,694.36
2023-04-14T12:25:35.348Z,690.65
2023-04-14T12:26:35.340Z,693.82
2023-04-14T12:27:35.324Z,694.38
2023-04-14T12:28:35.319Z,699.90
2023-04-14T12:29:35.315Z,705.23